createdAt,value
2023-04-14T00:00:06.965Z,91.31
2023-04-14T00:02:38.847Z,92.03
2023-04-14T00:05:10.615Z,91.11
2023-04-14T00:07:42.242Z,92.03
2023-04-14T00:10:13.684Z,91.99
2023-04-14T00:12:45.327Z,91.40
2023-04-14T00:15:17.016Z,91.82
2023-04-14T00:17:48.730Z,92.44
2023-04-14T00:20:20.298Z,93.11
2023-04-14T00:22:51.890Z,93.68
2023-04-14T00:25:23.532Z,93.49
2023-04-14T00:27:55.257Z,93.45
2023-04-14T00:30:27.106Z,93.16
2023-04-14T00:32:58.599Z,93.63
2023-04-14T00:35:31.771Z,93.15
2023-04-14T00:38:03.307Z,92.76
2023-04-14T00:40:34.897Z,92.84
2023-04-14T00:43:06.400Z,93.65
2023-04-14T00:45:44.439Z,93.76
2023-04-14T00:48:18.370Z,94.43
2023-04-14T00:50:49.963Z,94.51
2023-04-14T00:53:21.604Z,94.66
2023-04-14T00:55:53.166Z,94.22
2023-04-14T00:58:25.424Z,95.26
2023-04-14T01:00:58.374Z,94.73
2023-04-14T01:03:30.135Z,94.22
2023-04-14T01:06:01.970Z,93.11
2023-04-14T01:08:33.511Z,93.52
2023-04-14T01:11:12.698Z,93.39
2023-04-14T01:14:22.704Z,92.88
2023-04-14T01:17:01.762Z,91.80
2023-04-14T01:19:42.405Z,92.02
2023-04-14T01:22:18.548Z,91.46
2023-04-14T01:25:00.987Z,90.78
2023-04-14T01:27:54.217Z,91.13
2023-04-14T01:30:46.720Z,90.99
2023-04-14T01:33:22.634Z,90.35
2023-04-14T01:35:57.075Z,90.10
2023-04-14T01:38:32.779Z,90.34
2023-04-14T01:41:10.598Z,90.34
2023-04-14T01:43:45.429Z,90.51
2023-04-14T01:46:18.382Z,89.75
2023-04-14T01:48:51.600Z,89.95
2023-04-14T01:51:24.068Z,90.37
2023-04-14T01:53:56.979Z,90.76
2023-04-14T01:56:29.667Z,90.68
2023-04-14T01:59:02.285Z,90.19
2023-04-14T02:01:34.936Z,89.85
2023-04-14T02:04:08.767Z,89.69
2023-04-14T02:06:40.880Z,89.99
2023-04-14T02:09:13.258Z,90.32
2023-04-14T02:11:46.098Z,89.81
2023-04-14T02:14:19.227Z,89.65
2023-04-14T02:16:53.538Z,89.07
2023-04-14T02:19:25.798Z,89.10
2023-04-14T02:21:58.627Z,89.43
2023-04-14T02:24:30.954Z,89.91
2023-04-14T02:27:08.963Z,89.83
2023-04-14T02:29:45.243Z,90.08
2023-04-14T02:32:24.920Z,90.39
2023-04-14T02:35:06.490Z,91.05
2023-04-14T02:37:41.875Z,91.09
2023-04-14T02:40:18.229Z,91.99
2023-04-14T02:42:56.435Z,92.04
2023-04-14T02:45:32.224Z,93.15
2023-04-14T02:48:10.423Z,93.93
2023-04-14T02:50:47.714Z,95.07
2023-04-14T02:53:23.771Z,95.21
2023-04-14T02:55:55.786Z,94.69
2023-04-14T02:58:29.145Z,95.18
2023-04-14T03:01:01.917Z,95.14
2023-04-14T03:03:37.363Z,95.25
2023-04-14T03:06:09.841Z,94.85
2023-04-14T03:08:43.166Z,95.16
2023-04-14T03:11:16.609Z,94.75
2023-04-14T03:13:52.846Z,92.91
2023-04-14T03:16:28.726Z,92.57
2023-04-14T03:19:04.733Z,92.84
2023-04-14T03:21:37.766Z,91.95
2023-04-14T03:24:13.982Z,91.77
2023-04-14T03:26:47.432Z,92.45
2023-04-14T03:29:21.602Z,92.04
2023-04-14T03:31:56.399Z,91.25
2023-04-14T03:34:32.143Z,91.98
2023-04-14T03:37:05.037Z,91.17
2023-04-14T03:39:38.840Z,91.92
2023-04-14T03:42:11.426Z,92.34
2023-04-14T03:44:49.918Z,92.41
2023-04-14T03:47:23.680Z,92.72
2023-04-14T03:49:59.743Z,93.04
2023-04-14T03:52:36.233Z,92.88
2023-04-14T03:55:12.388Z,93.45
2023-04-14T03:57:44.981Z,93.48
2023-04-14T04:00:18.777Z,92.90
2023-04-14T04:02:50.974Z,93.33
2023-04-14T04:05:23.423Z,94.29
2023-04-14T04:07:56.459Z,94.10
2023-04-14T04:10:32.715Z,94.04
2023-04-14T04:13:10.492Z,94.16
2023-04-14T04:15:42.263Z,94.54
2023-04-14T04:18:17.129Z,94.60
2023-04-14T04:20:49.996Z,94.30
2023-04-14T04:23:22.579Z,94.29
2023-04-14T04:25:54.938Z,94.48
2023-04-14T04:28:26.783Z,95.15
2023-04-14T04:31:00.711Z,96.04
2023-04-14T04:33:32.610Z,96.40
2023-04-14T04:36:06.521Z,97.11
2023-04-14T04:38:38.166Z,97.75
2023-04-14T04:41:29.644Z,98.30
2023-04-14T04:44:01.808Z,98.49
2023-04-14T04:46:46.416Z,99.13
2023-04-14T04:49:17.982Z,98.86
2023-04-14T04:51:52.359Z,99.13
2023-04-14T04:54:23.965Z,100.00
2023-04-14T04:56:57.516Z,100.00
2023-04-14T04:59:29.076Z,100.00
2023-04-14T05:02:00.981Z,100.00
2023-04-14T05:04:33.409Z,100.00
2023-04-14T05:07:04.931Z,100.00
2023-04-14T05:09:36.670Z,99.58
2023-04-14T05:12:08.238Z,100.00
2023-04-14T05:14:39.735Z,99.67
2023-04-14T05:17:11.362Z,100.00
2023-04-14T05:19:42.951Z,100.00
2023-04-14T05:22:14.466Z,100.00
2023-04-14T05:24:50.526Z,100.00
2023-04-14T05:27:22.093Z,100.00
2023-04-14T05:29:53.976Z,100.00
2023-04-14T05:32:27.085Z,100.00
2023-04-14T05:35:00.007Z,100.00
2023-04-14T05:37:31.570Z,100.00
2023-04-14T05:40:03.792Z,100.00
2023-04-14T05:42:35.400Z,100.00
2023-04-14T05:45:07.830Z,100.00
2023-04-14T05:47:39.772Z,99.98
2023-04-14T05:50:11.642Z,100.00
2023-04-14T05:52:43.133Z,100.00
2023-04-14T05:55:15.035Z,100.00
2023-04-14T05:57:46.940Z,100.00
2023-04-14T06:00:18.839Z,100.00
2023-04-14T06:02:50.640Z,100.00
2023-04-14T06:05:24.296Z,100.00
2023-04-14T06:07:56.104Z,100.00
2023-04-14T06:10:27.684Z,100.00
2023-04-14T06:12:59.395Z,100.00
2023-04-14T06:15:31.466Z,100.00
2023-04-14T06:18:03.097Z,100.00
2023-04-14T06:20:36.084Z,100.00
2023-04-14T06:23:07.673Z,100.00
2023-04-14T06:25:39.195Z,100.00
2023-04-14T06:28:10.987Z,100.00
2023-04-14T06:30:42.537Z,100.00
2023-04-14T06:33:13.998Z,99.85
2023-04-14T06:35:45.411Z,99.19
2023-04-14T06:38:17.028Z,99.19
2023-04-14T06:40:50.279Z,100.00
2023-04-14T06:43:23.959Z,100.00
2023-04-14T06:45:55.795Z,99.22
2023-04-14T06:48:28.067Z,99.82
2023-04-14T06:50:59.729Z,100.00
2023-04-14T06:53:31.356Z,99.60
2023-04-14T06:56:02.813Z,99.78
2023-04-14T06:58:34.374Z,99.38
2023-04-14T07:01:07.341Z,99.07
2023-04-14T07:03:39.549Z,98.91
2023-04-14T07:06:11.877Z,99.11
2023-04-14T07:08:44.256Z,99.50
2023-04-14T07:11:15.750Z,98.77
2023-04-14T07:13:49.893Z,98.38
2023-04-14T07:16:21.426Z,98.98
2023-04-14T07:18:53.084Z,99.30
2023-04-14T07:21:24.663Z,99.75
2023-04-14T07:23:56.174Z,98.51
2023-04-14T07:26:27.641Z,98.82
2023-04-14T07:28:59.276Z,99.89
2023-04-14T07:31:35.658Z,99.00
2023-04-14T07:34:08.025Z,99.32
2023-04-14T07:36:39.485Z,99.17
2023-04-14T07:39:11.299Z,99.27
2023-04-14T07:41:43.530Z,99.09
2023-04-14T07:44:15.059Z,98.85
2023-04-14T07:46:46.602Z,97.71
2023-04-14T07:49:18.313Z,97.78
2023-04-14T07:51:50.815Z,97.65
2023-04-14T07:54:23.126Z,97.10
2023-04-14T07:56:54.570Z,97.69
2023-04-14T07:59:26.429Z,97.01
2023-04-14T08:01:58.416Z,97.89
2023-04-14T08:04:30.174Z,96.96
2023-04-14T08:07:01.786Z,97.33
2023-04-14T08:09:33.409Z,96.25
2023-04-14T08:12:04.951Z,94.85
2023-04-14T08:14:36.652Z,94.50
2023-04-14T08:17:08.170Z,95.14
2023-04-14T08:19:39.817Z,95.98
2023-04-14T08:22:11.362Z,94.87
2023-04-14T08:24:42.858Z,94.39
2023-04-14T08:27:14.286Z,94.21
2023-04-14T08:29:46.024Z,94.36
2023-04-14T08:32:17.509Z,94.23
2023-04-14T08:35:38.313Z,94.61
2023-04-14T08:37:40.762Z,93.07
2023-04-14T08:40:13.163Z,93.33
2023-04-14T08:42:45.911Z,92.32
2023-04-14T08:45:19.906Z,91.25
2023-04-14T08:47:55.048Z,91.68
2023-04-14T08:50:33.761Z,91.76
2023-04-14T08:53:09.380Z,92.11
2023-04-14T08:55:41.941Z,91.96
2023-04-14T08:58:13.535Z,91.00
2023-04-14T09:00:45.878Z,92.15
2023-04-14T09:03:17.820Z,90.33
2023-04-14T09:05:50.640Z,91.02
2023-04-14T09:08:22.724Z,90.03
2023-04-14T09:10:54.667Z,91.68
2023-04-14T09:13:27.990Z,91.20
2023-04-14T09:16:00.271Z,92.31
2023-04-14T09:18:34.356Z,89.71
2023-04-14T09:21:30.104Z,90.41
2023-04-14T09:23:58.755Z,89.95
2023-04-14T09:26:30.644Z,89.21
2023-04-14T09:29:02.306Z,88.89
2023-04-14T09:31:34.541Z,89.22
2023-04-14T09:34:16.616Z,89.58
2023-04-14T09:37:08.491Z,90.90
2023-04-14T09:39:48.694Z,90.52
2023-04-14T09:42:21.165Z,90.56
2023-04-14T09:44:54.296Z,90.67
2023-04-14T09:47:26.634Z,89.85
2023-04-14T09:49:59.903Z,91.18
2023-04-14T09:52:42.543Z,91.41
2023-04-14T09:55:15.177Z,92.08
2023-04-14T09:57:51.759Z,91.76
2023-04-14T10:00:24.592Z,89.56
2023-04-14T10:02:58.291Z,90.21
2023-04-14T10:05:34.411Z,88.88
2023-04-14T10:08:06.682Z,88.67
2023-04-14T10:10:39.475Z,88.25
2023-04-14T10:13:15.194Z,88.23
2023-04-14T10:15:46.740Z,89.65
2023-04-14T10:18:21.033Z,88.33
2023-04-14T10:20:52.805Z,88.26
2023-04-14T10:23:25.633Z,88.09
2023-04-14T10:25:58.254Z,87.80
2023-04-14T10:28:32.503Z,88.69
2023-04-14T10:31:10.220Z,86.70
2023-04-14T10:33:42.510Z,87.63
2023-04-14T10:36:23.846Z,85.62
2023-04-14T10:39:01.456Z,86.11
2023-04-14T10:41:52.907Z,83.43
2023-04-14T10:44:24.463Z,82.32
2023-04-14T10:46:57.130Z,81.42
2023-04-14T10:49:39.289Z,81.98
2023-04-14T10:52:16.928Z,82.83
2023-04-14T10:54:48.459Z,82.29
2023-04-14T10:57:27.899Z,81.62
2023-04-14T11:00:00.400Z,80.84
2023-04-14T11:02:33.823Z,80.80
2023-04-14T11:05:11.728Z,82.62
2023-04-14T11:07:48.985Z,81.38
2023-04-14T11:10:23.991Z,81.24
2023-04-14T11:13:02.400Z,80.43
2023-04-14T11:15:50.605Z,81.30
2023-04-14T11:18:45.403Z,78.51
2023-04-14T11:21:18.034Z,78.44
2023-04-14T11:23:49.720Z,77.66
2023-04-14T11:26:24.543Z,73.81
2023-04-14T11:28:56.694Z,72.25
2023-04-14T11:31:28.305Z,71.87
2023-04-14T11:34:03.503Z,69.48
2023-04-14T11:39:18.505Z,74.17
2023-04-14T11:41:51.482Z,73.45
2023-04-14T11:44:23.034Z,72.76
2023-04-14T11:46:54.741Z,73.20
2023-04-14T11:49:36.330Z,74.51
2023-04-14T11:52:08.625Z,73.64
2023-04-14T11:54:40.234Z,75.43
2023-04-14T11:57:17.462Z,75.24
2023-04-14T11:59:49.085Z,77.24
2023-04-14T12:02:22.018Z,79.25
2023-04-14T12:04:53.803Z,78.14
2023-04-14T12:07:29.719Z,74.94
2023-04-14T12:10:05.346Z,76.51
2023-04-14T12:12:36.974Z,73.46
2023-04-14T12:15:09.503Z,73.58
2023-04-14T12:17:41.839Z,74.38
2023-04-14T12:20:15.808Z,77.12
2023-04-14T12:22:49.733Z,70.69
2023-04-14T12:25:21.257Z,73.29
2023-04-14T12:27:55.779Z,74.47
2023-04-14T12:30:28.555Z,76.55
2023-04-14T12:33:09.562Z,74.97
2023-04-14T12:35:41.069Z,74.38
2023-04-14T12:38:13.178Z,73.90
2023-04-14T12:40:46.957Z,73.79
2023-04-14T12:43:28.078Z,76.30
2023-04-14T12:45:59.873Z,76.82
2023-04-14T12:48:43.909Z,75.77
2023-04-14T12:51:17.309Z,76.47
2023-04-14T12:53:53.283Z,79.41
2023-04-14T12:56:25.052Z,77.49
2023-04-14T12:58:56.683Z,79.94
2023-04-14T13:01:28.365Z,83.31
2023-04-14T13:03:59.985Z,84.61
2023-04-14T13:06:31.848Z,83.02
2023-04-14T13:09:04.374Z,83.38
2023-04-14T13:11:39.356Z,82.86
2023-04-14T13:14:11.171Z,82.08
2023-04-14T13:16:42.680Z,82.66
2023-04-14T13:19:14.227Z,85.76
2023-04-14T13:21:45.892Z,85.26
2023-04-14T13:24:17.428Z,85.12
2023-04-14T13:26:49.432Z,84.46
2023-04-14T13:29:21.405Z,84.81
2023-04-14T13:31:52.929Z,85.75
2023-04-14T13:34:24.540Z,84.09
2023-04-14T13:36:56.434Z,83.37
2023-04-14T13:39:28.014Z,82.47
2023-04-14T13:41:59.537Z,80.46
2023-04-14T13:44:32.532Z,79.50
2023-04-14T13:47:04.185Z,79.38
2023-04-14T13:49:35.738Z,76.91
2023-04-14T13:52:08.222Z,73.78
2023-04-14T13:54:39.786Z,72.87
2023-04-14T13:57:11.417Z,71.68
2023-04-14T13:59:44.187Z,65.95
2023-04-14T14:02:15.957Z,66.51
2023-04-14T14:04:47.766Z,65.65
2023-04-14T14:07:19.324Z,67.87
2023-04-14T14:09:51.051Z,65.61
2023-04-14T14:12:22.562Z,63.04
2023-04-14T14:14:54.145Z,64.11
2023-04-14T14:17:26.790Z,60.76
2023-04-14T14:19:59.213Z,53.83
2023-04-14T14:22:30.759Z,52.43
2023-04-14T14:25:17.760Z,48.88
2023-04-14T14:27:51.922Z,45.97
2023-04-14T14:30:23.653Z,45.33
2023-04-14T14:32:55.306Z,42.52
2023-04-14T14:35:26.916Z,40.54
2023-04-14T14:38:00.823Z,40.28
2023-04-14T14:40:32.570Z,40.89
2023-04-14T14:43:04.229Z,39.16
2023-04-14T14:45:35.903Z,36.00
2023-04-14T14:48:08.808Z,36.64
2023-04-14T14:50:40.434Z,36.51
2023-04-14T14:53:11.883Z,33.55
2023-04-14T14:55:43.537Z,31.03
2023-04-14T14:58:15.497Z,30.71
2023-04-14T15:00:47.267Z,28.36
2023-04-14T15:03:20.300Z,28.02
2023-04-14T15:05:52.472Z,27.47
2023-04-14T15:08:24.081Z,26.88
2023-04-14T15:10:55.848Z,25.95
2023-04-14T15:13:27.599Z,25.43
2023-04-14T15:15:58.998Z,23.25
2023-04-14T15:18:30.503Z,25.17
2023-04-14T15:21:02.549Z,24.66
2023-04-14T15:23:37.051Z,28.32
2023-04-14T15:26:08.697Z,32.18
2023-04-14T15:28:42.494Z,32.71
2023-04-14T15:31:14.022Z,32.31
2023-04-14T15:33:46.080Z,34.86
2023-04-14T15:36:17.956Z,37.50
2023-04-14T15:38:50.968Z,37.83
2023-04-14T15:41:22.521Z,37.85
2023-04-14T15:43:54.141Z,39.42
2023-04-14T15:46:25.777Z,39.00
2023-04-14T15:48:57.325Z,40.23
2023-04-14T15:51:29.895Z,40.29
2023-04-14T15:54:01.625Z,42.79
2023-04-14T15:56:33.546Z,43.92
2023-04-14T15:59:05.035Z,46.27
2023-04-14T16:01:36.673Z,47.37
2023-04-14T16:04:08.448Z,48.14
2023-04-14T16:06:40.241Z,49.82
2023-04-14T16:09:12.342Z,50.25
2023-04-14T16:11:43.926Z,49.83
2023-04-14T16:14:15.517Z,50.35
2023-04-14T16:16:47.296Z,50.62
2023-04-14T16:19:18.941Z,51.29
2023-04-14T16:21:50.639Z,51.79
2023-04-14T16:24:22.131Z,52.44
2023-04-14T16:26:53.978Z,52.93
2023-04-14T16:29:25.456Z,53.96
2023-04-14T16:31:57.128Z,57.41
2023-04-14T16:34:28.896Z,59.51
2023-04-14T16:37:09.302Z,62.91
2023-04-14T16:39:41.266Z,63.81
2023-04-14T16:42:13.138Z,65.30
2023-04-14T16:44:44.667Z,66.63
2023-04-14T16:47:16.210Z,67.19
2023-04-14T16:49:50.156Z,68.48
2023-04-14T16:52:21.954Z,68.20
2023-04-14T16:54:54.505Z,68.04
2023-04-14T16:57:26.219Z,67.98
2023-04-14T16:59:57.714Z,67.23
2023-04-14T17:02:29.616Z,66.85
2023-04-14T17:05:01.526Z,66.09
2023-04-14T17:07:33.605Z,64.93
2023-04-14T17:10:05.485Z,65.29
2023-04-14T17:12:37.010Z,65.71
2023-04-14T17:15:09.194Z,66.32
2023-04-14T17:17:40.773Z,66.19
2023-04-14T17:20:14.887Z,68.07
2023-04-14T17:22:47.640Z,67.34
2023-04-14T17:25:22.362Z,68.46
2023-04-14T17:27:53.893Z,68.00
2023-04-14T17:30:27.093Z,69.39
2023-04-14T17:32:58.650Z,69.29
2023-04-14T17:35:31.711Z,69.38
2023-04-14T17:38:04.031Z,69.87
2023-04-14T17:40:35.773Z,70.06
2023-04-14T17:43:07.347Z,70.79
2023-04-14T17:45:42.223Z,70.80
2023-04-14T17:48:13.993Z,71.29
2023-04-14T17:50:46.383Z,71.10
2023-04-14T17:53:17.836Z,72.21
2023-04-14T17:55:49.340Z,71.41
2023-04-14T17:58:20.960Z,70.43
2023-04-14T18:00:52.886Z,72.18
2023-04-14T18:03:24.616Z,72.62
2023-04-14T18:05:56.531Z,73.25
2023-04-14T18:08:28.132Z,73.39
2023-04-14T18:10:59.787Z,73.04
2023-04-14T18:13:32.187Z,72.97
2023-04-14T18:16:04.422Z,73.77
2023-04-14T18:18:35.941Z,72.90
2023-04-14T18:21:08.058Z,72.44
2023-04-14T18:23:39.739Z,72.71
2023-04-14T18:28:45.853Z,75.31
2023-04-14T18:31:17.454Z,76.68
2023-04-14T18:33:49.053Z,77.89
2023-04-14T18:36:20.659Z,78.45
2023-04-14T18:38:52.185Z,76.99
2023-04-14T18:41:24.705Z,76.99
2023-04-14T18:43:56.235Z,76.86
2023-04-14T18:46:27.775Z,77.58
2023-04-14T18:48:59.845Z,78.12
2023-04-14T18:51:32.367Z,79.52
2023-04-14T18:54:04.056Z,79.40
2023-04-14T18:56:35.860Z,79.19
2023-04-14T18:59:10.531Z,79.69
2023-04-14T19:01:42.064Z,79.56
2023-04-14T19:04:13.731Z,79.49
2023-04-14T19:06:48.046Z,78.36
2023-04-14T19:09:20.075Z,78.68
2023-04-14T19:11:51.685Z,78.77
2023-04-14T19:14:23.267Z,77.61
2023-04-14T19:16:55.015Z,77.67
2023-04-14T19:19:26.584Z,77.14
2023-04-14T19:21:58.050Z,77.41
2023-04-14T19:24:31.409Z,77.48
2023-04-14T19:27:04.575Z,78.03
2023-04-14T19:29:36.705Z,77.73
2023-04-14T19:32:08.229Z,77.25
2023-04-14T19:34:39.747Z,77.28
2023-04-14T19:37:11.510Z,77.11
2023-04-14T19:39:43.069Z,77.11
2023-04-14T19:42:14.598Z,76.41
2023-04-14T19:44:46.446Z,76.76
2023-04-14T19:47:18.054Z,76.99
2023-04-14T19:49:49.639Z,76.69
2023-04-14T19:52:21.242Z,76.39
2023-04-14T19:54:53.142Z,75.01
2023-04-14T19:57:24.704Z,75.70
2023-04-14T19:59:56.221Z,76.10
2023-04-14T20:02:29.852Z,76.66
2023-04-14T20:05:01.938Z,77.28
2023-04-14T20:07:33.515Z,77.75
2023-04-14T20:10:05.904Z,77.08
2023-04-14T20:12:37.283Z,78.11
2023-04-14T20:15:09.294Z,77.54
2023-04-14T20:17:40.818Z,77.26
2023-04-14T20:20:13.548Z,77.39
2023-04-14T20:22:45.568Z,77.05
2023-04-14T20:25:17.881Z,77.69
2023-04-14T20:27:49.876Z,77.58
2023-04-14T20:30:21.950Z,77.68
2023-04-14T20:32:53.518Z,78.13
2023-04-14T20:35:25.612Z,77.41
2023-04-14T20:37:57.515Z,77.31
2023-04-14T20:40:29.070Z,78.45
2023-04-14T20:43:00.641Z,77.70
2023-04-14T20:45:32.241Z,77.72
2023-04-14T20:48:03.951Z,77.85
2023-04-14T20:50:35.820Z,78.00
2023-04-14T20:53:08.173Z,78.24
2023-04-14T20:55:41.069Z,78.44
2023-04-14T20:58:13.799Z,78.16
2023-04-14T21:00:45.532Z,78.18
2023-04-14T21:03:17.332Z,78.81
2023-04-14T21:05:49.002Z,78.17
2023-04-14T21:08:21.367Z,78.63
2023-04-14T21:11:14.326Z,78.59
2023-04-14T21:15:00.432Z,78.09
2023-04-14T21:16:36.789Z,78.01
2023-04-14T21:19:09.354Z,78.35
2023-04-14T21:21:40.825Z,79.04
2023-04-14T21:24:12.326Z,79.50
2023-04-14T21:26:43.866Z,79.54
2023-04-14T21:29:15.378Z,80.07
2023-04-14T21:31:47.039Z,80.37
2023-04-14T21:34:19.223Z,80.93
2023-04-14T21:36:50.745Z,80.05
2023-04-14T21:39:25.699Z,80.45
2023-04-14T21:41:58.702Z,79.87
2023-04-14T21:44:30.237Z,80.62
2023-04-14T21:47:01.869Z,80.10
2023-04-14T21:49:33.517Z,80.06
2023-04-14T21:52:05.383Z,79.49
2023-04-14T21:54:40.268Z,79.83
2023-04-14T21:57:11.798Z,79.97
2023-04-14T21:59:43.413Z,80.15
2023-04-14T22:02:15.042Z,80.71
2023-04-14T22:04:46.756Z,80.53
2023-04-14T22:07:18.310Z,80.38
2023-04-14T22:09:49.785Z,80.02
2023-04-14T22:12:21.240Z,80.62
2023-04-14T22:14:52.745Z,80.48
2023-04-14T22:17:24.336Z,80.48
2023-04-14T22:19:55.897Z,81.11
2023-04-14T22:22:27.873Z,80.24
2023-04-14T22:25:00.036Z,80.02
2023-04-14T22:27:33.839Z,80.02
2023-04-14T22:30:05.819Z,79.90
2023-04-14T22:32:37.366Z,80.56
2023-04-14T22:35:09.177Z,81.26
2023-04-14T22:37:40.758Z,81.11
2023-04-14T22:40:12.474Z,81.71
2023-04-14T22:42:43.953Z,82.27
2023-04-14T22:45:15.554Z,82.23
2023-04-14T22:47:47.091Z,82.24
2023-04-14T22:50:18.672Z,82.30
2023-04-14T22:52:50.270Z,81.98
2023-04-14T22:55:21.771Z,81.62
2023-04-14T22:57:53.240Z,82.33
2023-04-14T23:00:25.056Z,82.08
2023-04-14T23:02:59.276Z,82.21
2023-04-14T23:05:31.028Z,82.27
2023-04-14T23:08:02.912Z,82.29
2023-04-14T23:10:34.505Z,82.32
2023-04-14T23:13:06.306Z,82.58
2023-04-14T23:15:37.907Z,82.61
2023-04-14T23:18:09.399Z,82.60
2023-04-14T23:20:41.059Z,82.98
2023-04-14T23:23:14.365Z,82.88
2023-04-14T23:25:45.929Z,82.78
2023-04-14T23:28:17.456Z,82.50
2023-04-14T23:30:49.138Z,82.24
2023-04-14T23:33:20.590Z,82.18
2023-04-14T23:35:52.132Z,82.13
2023-04-14T23:38:24.337Z,82.44
2023-04-14T23:40:58.974Z,82.04
2023-04-14T23:43:30.641Z,82.12
2023-04-14T23:46:02.201Z,81.94
2023-04-14T23:48:33.692Z,82.02
2023-04-14T23:51:15.050Z,81.95
2023-04-14T23:53:52.110Z,81.54
2023-04-14T23:56:23.610Z,81.91
2023-04-14T23:58:56.403Z,81.64
